Terminal Aerodrome Forecast
Issued by NWS Glasgow, MT

Home | Current Version | Previous Version | Text Only | Print | Product List | Glossary On
Versions: 1 2 3 4 5 6 7 8 9 10 11 12 13
000
FTUS45 KGGW 311122
TAFGGW
TAF
KGGW 311122Z 3112/0112 09009KT P6SM SCT150
     FM311500 11013KT P6SM FEW140
     FM312000 15014KT P6SM FEW140
     FM010900 12015KT P6SM SCT150=

USA.gov is the U.S. government's official web portal to all federal, state and local government web resources and services.